M I D A S
Marine Information and Data Acquisition System
Tripno 1945 of the Zeeleeuw from 2010-08-25 06:32:46 to 2010-08-25 14:01:26
Back to CruiseResearch ActivitiesStationsMapUnderway DataData graphs

EquipmentUnitsComment
TimeDGPSUTC
LatitudeDGPSDM.mWGS84
LongitudeDGPSDM.mWGS84
TemperatureSBE03/SBE38deg celciusITS90
ConductivitySBE21S/mITS90
SalinitySBE21 Practical Salinity Units
ChlorophylAChelsea fluorimeterg/lCalibrated in Aceton
Missing or incorrect values are displayed as -999
Sea surface data collected by the RV Zeeleeuw from 2010-08-25 06:31:20 to 2010-08-25 14:11:02
                                                                                    Next 1000 lines
Time Latitude Longitude Temperature Conductivity Salinity ChlorophylA
2010-08-25 06:31:40 51°13.664 2°55.95 -999 -999 -999 -999
2010-08-25 06:31:50 51°13.666 2°55.942 -999 -999 -999 -999
2010-08-25 06:32:00 51°13.669 2°55.933 -999 -999 -999 -999
2010-08-25 06:32:10 51°13.672 2°55.921 -999 -999 -999 -999
2010-08-25 06:32:20 51°13.676 2°55.908 -999 -999 -999 -999
2010-08-25 06:32:30 51°13.678 2°55.897 -999 -999 -999 -999
2010-08-25 06:32:40 51°13.682 2°55.884 -999 -999 -999 -999
2010-08-25 06:32:50 51°13.685 2°55.87 -999 -999 -999 -999
2010-08-25 06:33:00 51°13.688 2°55.856 -999 -999 -999 -999
2010-08-25 06:33:10 51°13.69 2°55.843 -999 -999 -999 -999
2010-08-25 06:33:20 51°13.692 2°55.828 -999 -999 -999 -999
2010-08-25 06:33:30 51°13.694 2°55.814 -999 -999 -999 -999
2010-08-25 06:33:40 51°13.696 2°55.802 -999 -999 -999 -999
2010-08-25 06:33:50 51°13.697 2°55.789 -999 -999 -999 -999
2010-08-25 06:34:00 51°13.698 2°55.778 -999 -999 -999 -999
2010-08-25 06:34:10 51°13.698 2°55.765 -999 -999 -999 -999
2010-08-25 06:34:20 51°13.698 2°55.756 -999 -999 -999 -999
2010-08-25 06:34:30 51°13.699 2°55.75 -999 -999 -999 -999
2010-08-25 06:34:40 51°13.701 2°55.75 -999 -999 -999 -999
2010-08-25 06:34:50 51°13.706 2°55.755 -999 -999 -999 -999
2010-08-25 06:35:00 51°13.712 2°55.76 -999 -999 -999 -999
2010-08-25 06:35:10 51°13.723 2°55.761 -999 -999 -999 -999
2010-08-25 06:35:20 51°13.734 2°55.756 -999 -999 -999 -999
2010-08-25 06:35:30 51°13.745 2°55.745 -999 -999 -999 -999
2010-08-25 06:35:40 51°13.753 2°55.734 -999 -999 -999 -999
2010-08-25 06:35:50 51°13.763 2°55.721 -999 -999 -999 -999
2010-08-25 06:36:00 51°13.772 2°55.706 -999 -999 -999 -999
2010-08-25 06:36:10 51°13.782 2°55.689 -999 -999 -999 -999
2010-08-25 06:36:20 51°13.793 2°55.673 -999 -999 -999 -999
2010-08-25 06:36:30 51°13.804 2°55.658 -999 -999 -999 -999
2010-08-25 06:36:40 51°13.816 2°55.645 -999 -999 -999 -999
2010-08-25 06:36:50 51°13.831 2°55.632 -999 -999 -999 -999
2010-08-25 06:37:00 51°13.845 2°55.621 -999 -999 -999 -999
2010-08-25 06:37:10 51°13.86 2°55.61 -999 -999 -999 -999
2010-08-25 06:37:20 51°13.875 2°55.598 -999 -999 -999 -999
2010-08-25 06:37:30 51°13.89 2°55.586 -999 -999 -999 -999
2010-08-25 06:37:40 51°13.905 2°55.576 -999 -999 -999 -999
2010-08-25 06:37:50 51°13.922 2°55.563 -999 -999 -999 -999
2010-08-25 06:38:00 51°13.937 2°55.552 -999 -999 -999 -999
2010-08-25 06:38:10 51°13.954 2°55.54 -999 -999 -999 -999
2010-08-25 06:38:20 51°13.969 2°55.528 -999 -999 -999 -999
2010-08-25 06:38:30 51°13.985 2°55.515 -999 -999 -999 -999
2010-08-25 06:38:40 51°14.005 2°55.502 -999 -999 -999 -999
2010-08-25 06:38:50 51°14.023 2°55.489 -999 -999 -999 -999
2010-08-25 06:39:00 51°14.039 2°55.477 -999 -999 -999 -999
2010-08-25 06:39:10 51°14.058 2°55.463 -999 -999 -999 -999
2010-08-25 06:39:20 51°14.076 2°55.448 -999 -999 -999 -999
2010-08-25 06:39:30 51°14.094 2°55.434 -999 -999 -999 -999
2010-08-25 06:39:40 51°14.109 2°55.423 -999 -999 -999 -999
2010-08-25 06:39:50 51°14.131 2°55.406 -999 -999 -999 -999
2010-08-25 06:40:00 51°14.147 2°55.392 -999 -999 -999 -999
2010-08-25 06:40:10 51°14.167 2°55.374 -999 -999 -999 -999
2010-08-25 06:40:20 51°14.183 2°55.36 -999 -999 -999 -999
2010-08-25 06:40:30 51°14.203 2°55.342 -999 -999 -999 -999
2010-08-25 06:40:40 51°14.221 2°55.326 -999 -999 -999 -999
2010-08-25 06:40:50 51°14.239 2°55.31 -999 -999 -999 -999
2010-08-25 06:41:00 51°14.253 2°55.297 -999 -999 -999 -999
2010-08-25 06:41:10 51°14.269 2°55.282 -999 -999 -999 -999
2010-08-25 06:41:20 51°14.289 2°55.265 -999 -999 -999 -999
2010-08-25 06:41:30 51°14.307 2°55.248 -999 -999 -999 -999
2010-08-25 06:41:40 51°14.324 2°55.232 -999 -999 -999 -999
2010-08-25 06:41:50 51°14.342 2°55.215 -999 -999 -999 -999
2010-08-25 06:42:00 51°14.359 2°55.199 -999 -999 -999 -999
2010-08-25 06:42:10 51°14.375 2°55.183 -999 -999 -999 -999
2010-08-25 06:42:20 51°14.395 2°55.164 -999 -999 -999 -999
2010-08-25 06:42:30 51°14.417 2°55.142 -999 -999 -999 -999
2010-08-25 06:42:40 51°14.442 2°55.116 -999 -999 -999 -999
2010-08-25 06:42:50 51°14.466 2°55.09 -999 -999 -999 -999
2010-08-25 06:43:00 51°14.493 2°55.059 -999 -999 -999 -999
2010-08-25 06:43:10 51°14.522 2°55.028 -999 -999 -999 -999
2010-08-25 06:43:20 51°14.552 2°54.989 -999 -999 -999 -999
2010-08-25 06:43:30 51°14.579 2°54.951 -999 -999 -999 -999
2010-08-25 06:43:40 51°14.609 2°54.909 -999 -999 -999 -999
2010-08-25 06:43:50 51°14.634 2°54.876 -999 -999 -999 -999
2010-08-25 06:44:00 51°14.665 2°54.836 -999 -999 -999 -999
2010-08-25 06:44:10 51°14.697 2°54.797 -999 -999 -999 -999
2010-08-25 06:44:20 51°14.722 2°54.765 -999 -999 -999 -999
2010-08-25 06:44:30 51°14.75 2°54.729 -999 -999 -999 -999
2010-08-25 06:44:40 51°14.778 2°54.693 -999 -999 -999 -999
2010-08-25 06:44:50 51°14.809 2°54.655 -999 -999 -999 -999
2010-08-25 06:45:00 51°14.834 2°54.622 -999 -999 -999 -999
2010-08-25 06:45:10 51°14.864 2°54.582 -999 -999 -999 -999
2010-08-25 06:45:20 51°14.889 2°54.55 -999 -999 -999 -999
2010-08-25 06:45:30 51°14.92 2°54.51 -999 -999 -999 -999
2010-08-25 06:45:40 51°14.947 2°54.475 -999 -999 -999 -999
2010-08-25 06:45:50 51°14.975 2°54.439 -999 -999 -999 -999
2010-08-25 06:46:00 51°15.003 2°54.405 -999 -999 -999 -999
2010-08-25 06:46:10 51°15.028 2°54.374 -999 -999 -999 -999
2010-08-25 06:46:20 51°15.056 2°54.34 -999 -999 -999 -999
2010-08-25 06:46:30 51°15.084 2°54.306 -999 -999 -999 -999
2010-08-25 06:46:40 51°15.111 2°54.271 -999 -999 -999 -999
2010-08-25 06:46:50 51°15.139 2°54.236 -999 -999 -999 -999
2010-08-25 06:47:00 51°15.167 2°54.2 -999 -999 -999 -999
2010-08-25 06:47:10 51°15.195 2°54.165 -999 -999 -999 -999
2010-08-25 06:47:20 51°15.224 2°54.129 -999 -999 -999 -999
2010-08-25 06:47:30 51°15.252 2°54.095 -999 -999 -999 -999
2010-08-25 06:47:40 51°15.282 2°54.062 -999 -999 -999 -999
2010-08-25 06:47:50 51°15.311 2°54.029 -999 -999 -999 -999
2010-08-25 06:48:00 51°15.34 2°53.995 -999 -999 -999 -999
2010-08-25 06:48:10 51°15.369 2°53.962 -999 -999 -999 -999
2010-08-25 06:48:20 51°15.398 2°53.928 -999 -999 -999 -999
2010-08-25 06:48:30 51°15.43 2°53.89 -999 -999 -999 -999
2010-08-25 06:48:40 51°15.456 2°53.859 -999 -999 -999 -999
2010-08-25 06:48:50 51°15.485 2°53.825 -999 -999 -999 -999
2010-08-25 06:49:00 51°15.515 2°53.791 -999 -999 -999 -999
2010-08-25 06:49:10 51°15.544 2°53.758 -999 -999 -999 -999
2010-08-25 06:49:20 51°15.574 2°53.726 -999 -999 -999 -999
2010-08-25 06:49:30 51°15.604 2°53.695 -999 -999 -999 -999
2010-08-25 06:49:40 51°15.634 2°53.665 -999 -999 -999 -999
2010-08-25 06:49:50 51°15.664 2°53.635 -999 -999 -999 -999
2010-08-25 06:50:00 51°15.695 2°53.605 -999 -999 -999 -999
2010-08-25 06:50:10 51°15.725 2°53.573 -999 -999 -999 -999
2010-08-25 06:50:20 51°15.755 2°53.542 -999 -999 -999 -999
2010-08-25 06:50:30 51°15.785 2°53.511 -999 -999 -999 -999
2010-08-25 06:50:40 51°15.815 2°53.48 -999 -999 -999 -999
2010-08-25 06:50:50 51°15.845 2°53.451 -999 -999 -999 -999
2010-08-25 06:51:00 51°15.876 2°53.423 -999 -999 -999 -999
2010-08-25 06:51:10 51°15.907 2°53.396 -999 -999 -999 -999
2010-08-25 06:51:20 51°15.939 2°53.369 -999 -999 -999 -999
2010-08-25 06:51:30 51°15.973 2°53.339 -999 -999 -999 -999
2010-08-25 06:51:40 51°16.001 2°53.316 -999 -999 -999 -999
2010-08-25 06:51:50 51°16.036 2°53.286 -999 -999 -999 -999
2010-08-25 06:52:00 51°16.064 2°53.262 -999 -999 -999 -999
2010-08-25 06:52:10 51°16.092 2°53.238 -999 -999 -999 -999
2010-08-25 06:52:20 51°16.123 2°53.212 -999 -999 -999 -999
2010-08-25 06:52:30 51°16.154 2°53.185 -999 -999 -999 -999
2010-08-25 06:52:40 51°16.185 2°53.158 -999 -999 -999 -999
2010-08-25 06:52:50 51°16.216 2°53.132 -999 -999 -999 -999
2010-08-25 06:53:00 51°16.25 2°53.102 -999 -999 -999 -999
2010-08-25 06:53:10 51°16.282 2°53.076 -999 -999 -999 -999
2010-08-25 06:53:20 51°16.313 2°53.049 -999 -999 -999 -999
2010-08-25 06:53:30 51°16.344 2°53.022 -999 -999 -999 -999
2010-08-25 06:53:40 51°16.375 2°52.995 -999 -999 -999 -999
2010-08-25 06:53:50 51°16.406 2°52.969 -999 -999 -999 -999
2010-08-25 06:54:00 51°16.436 2°52.942 -999 -999 -999 -999
2010-08-25 06:54:10 51°16.467 2°52.915 -999 -999 -999 -999
2010-08-25 06:54:20 51°16.498 2°52.888 -999 -999 -999 -999
2010-08-25 06:54:30 51°16.529 2°52.861 -999 -999 -999 -999
2010-08-25 06:54:40 51°16.56 2°52.835 -999 -999 -999 -999
2010-08-25 06:54:50 51°16.592 2°52.809 -999 -999 -999 -999
2010-08-25 06:55:00 51°16.623 2°52.784 -999 -999 -999 -999
2010-08-25 06:55:10 51°16.655 2°52.759 -999 -999 -999 -999
2010-08-25 06:55:20 51°16.686 2°52.734 -999 -999 -999 -999
2010-08-25 06:55:30 51°16.717 2°52.709 -999 -999 -999 -999
2010-08-25 06:55:40 51°16.747 2°52.683 -999 -999 -999 -999
2010-08-25 06:55:50 51°16.778 2°52.658 -999 -999 -999 -999
2010-08-25 06:56:00 51°16.809 2°52.633 -999 -999 -999 -999
2010-08-25 06:56:10 51°16.839 2°52.607 -999 -999 -999 -999
2010-08-25 06:56:20 51°16.87 2°52.581 -999 -999 -999 -999
2010-08-25 06:56:30 51°16.9 2°52.555 -999 -999 -999 -999
2010-08-25 06:56:40 51°16.931 2°52.529 -999 -999 -999 -999
2010-08-25 06:56:50 51°16.962 2°52.503 -999 -999 -999 -999
2010-08-25 06:57:00 51°16.992 2°52.477 -999 -999 -999 -999
2010-08-25 06:57:10 51°17.022 2°52.451 -999 -999 -999 -999
2010-08-25 06:57:20 51°17.053 2°52.425 -999 -999 -999 -999
2010-08-25 06:57:30 51°17.084 2°52.4 -999 -999 -999 -999
2010-08-25 06:57:40 51°17.114 2°52.374 -999 -999 -999 -999
2010-08-25 06:57:50 51°17.145 2°52.348 -999 -999 -999 -999
2010-08-25 06:58:00 51°17.176 2°52.322 -999 -999 -999 -999
2010-08-25 06:58:10 51°17.21 2°52.293 -999 -999 -999 -999
2010-08-25 06:58:20 51°17.237 2°52.269 -999 -999 -999 -999
2010-08-25 06:58:30 51°17.268 2°52.241 -999 -999 -999 -999
2010-08-25 06:58:40 51°17.298 2°52.212 -999 -999 -999 -999
2010-08-25 06:58:50 51°17.328 2°52.183 -999 -999 -999 -999
2010-08-25 06:59:00 51°17.358 2°52.154 -999 -999 -999 -999
2010-08-25 06:59:10 51°17.388 2°52.125 -999 -999 -999 -999
2010-08-25 06:59:20 51°17.417 2°52.096 -999 -999 -999 -999
2010-08-25 06:59:30 51°17.447 2°52.067 -999 -999 -999 -999
2010-08-25 06:59:40 51°17.476 2°52.038 -999 -999 -999 -999
2010-08-25 06:59:50 51°17.506 2°52.009 -999 -999 -999 -999
2010-08-25 07:00:00 51°17.535 2°51.98 -999 -999 -999 -999
2010-08-25 07:00:10 51°17.565 2°51.951 -999 -999 -999 -999
2010-08-25 07:00:20 51°17.594 2°51.921 -999 -999 -999 -999
2010-08-25 07:00:30 51°17.623 2°51.893 -999 -999 -999 -999
2010-08-25 07:00:40 51°17.653 2°51.864 -999 -999 -999 -999
2010-08-25 07:00:50 51°17.682 2°51.834 -999 -999 -999 -999
2010-08-25 07:01:00 51°17.711 2°51.805 -999 -999 -999 -999
2010-08-25 07:01:10 51°17.741 2°51.775 -999 -999 -999 -999
2010-08-25 07:01:20 51°17.77 2°51.745 -999 -999 -999 -999
2010-08-25 07:01:30 51°17.799 2°51.715 -999 -999 -999 -999
2010-08-25 07:01:40 51°17.829 2°51.686 -999 -999 -999 -999
2010-08-25 07:01:50 51°17.858 2°51.656 -999 -999 -999 -999
2010-08-25 07:02:00 51°17.888 2°51.626 -999 -999 -999 -999
2010-08-25 07:02:10 51°17.917 2°51.596 -999 -999 -999 -999
2010-08-25 07:02:20 51°17.946 2°51.565 -999 -999 -999 -999
2010-08-25 07:02:30 51°17.976 2°51.535 -999 -999 -999 -999
2010-08-25 07:02:40 51°18.005 2°51.504 -999 -999 -999 -999
2010-08-25 07:02:50 51°18.034 2°51.473 -999 -999 -999 -999
2010-08-25 07:03:00 51°18.063 2°51.442 -999 -999 -999 -999
2010-08-25 07:03:10 51°18.093 2°51.412 -999 -999 -999 -999
2010-08-25 07:03:20 51°18.122 2°51.38 -999 -999 -999 -999
2010-08-25 07:03:30 51°18.151 2°51.349 -999 -999 -999 -999
2010-08-25 07:03:40 51°18.18 2°51.318 -999 -999 -999 -999
2010-08-25 07:03:50 51°18.209 2°51.287 -999 -999 -999 -999
2010-08-25 07:04:00 51°18.238 2°51.255 -999 -999 -999 -999
2010-08-25 07:04:10 51°18.267 2°51.224 -999 -999 -999 -999
2010-08-25 07:04:20 51°18.296 2°51.192 -999 -999 -999 -999
2010-08-25 07:04:30 51°18.328 2°51.157 -999 -999 -999 -999
2010-08-25 07:04:40 51°18.354 2°51.129 -999 -999 -999 -999
2010-08-25 07:04:50 51°18.383 2°51.097 -999 -999 -999 -999
2010-08-25 07:05:00 51°18.412 2°51.065 -999 -999 -999 -999
2010-08-25 07:05:10 51°18.441 2°51.034 -999 -999 -999 -999
2010-08-25 07:05:20 51°18.47 2°51.003 -999 -999 -999 -999
2010-08-25 07:05:30 51°18.499 2°50.971 -999 -999 -999 -999
2010-08-25 07:05:40 51°18.528 2°50.94 -999 -999 -999 -999
2010-08-25 07:05:50 51°18.557 2°50.909 -999 -999 -999 -999
2010-08-25 07:06:00 51°18.586 2°50.878 -999 -999 -999 -999
2010-08-25 07:06:10 51°18.617 2°50.844 -999 -999 -999 -999
2010-08-25 07:06:20 51°18.643 2°50.816 -999 -999 -999 -999
2010-08-25 07:06:30 51°18.672 2°50.785 -999 -999 -999 -999
2010-08-25 07:06:40 51°18.701 2°50.754 -999 -999 -999 -999
2010-08-25 07:06:50 51°18.73 2°50.722 -999 -999 -999 -999
2010-08-25 07:07:00 51°18.759 2°50.69 -999 -999 -999 -999
2010-08-25 07:07:10 51°18.791 2°50.656 -999 -999 -999 -999
2010-08-25 07:07:20 51°18.816 2°50.628 -999 -999 -999 -999
2010-08-25 07:07:30 51°18.848 2°50.592 -999 -999 -999 -999
2010-08-25 07:07:40 51°18.874 2°50.564 -999 -999 -999 -999
2010-08-25 07:07:50 51°18.903 2°50.532 -999 -999 -999 -999
2010-08-25 07:08:00 51°18.931 2°50.501 -999 -999 -999 -999
2010-08-25 07:08:10 51°18.957 2°50.472 -999 -999 -999 -999
2010-08-25 07:08:20 51°18.988 2°50.438 -999 -999 -999 -999
2010-08-25 07:08:30 51°19.014 2°50.409 -999 -999 -999 -999
2010-08-25 07:08:40 51°19.046 2°50.375 -999 -999 -999 -999
2010-08-25 07:08:50 51°19.075 2°50.343 -999 -999 -999 -999
2010-08-25 07:09:00 51°19.105 2°50.313 -999 -999 -999 -999
2010-08-25 07:09:10 51°19.134 2°50.282 -999 -999 -999 -999
2010-08-25 07:09:20 51°19.163 2°50.251 -999 -999 -999 -999
2010-08-25 07:09:30 51°19.192 2°50.219 -999 -999 -999 -999
2010-08-25 07:09:40 51°19.221 2°50.188 -999 -999 -999 -999
2010-08-25 07:09:50 51°19.25 2°50.156 -999 -999 -999 -999
2010-08-25 07:10:00 51°19.28 2°50.125 -999 -999 -999 -999
2010-08-25 07:10:10 51°19.309 2°50.094 -999 -999 -999 -999
2010-08-25 07:10:20 51°19.338 2°50.063 -999 -999 -999 -999
2010-08-25 07:10:30 51°19.367 2°50.031 -999 -999 -999 -999
2010-08-25 07:10:40 51°19.397 2°50 -999 -999 -999 -999
2010-08-25 07:10:50 51°19.426 2°49.967 -999 -999 -999 -999
2010-08-25 07:11:00 51°19.455 2°49.935 -999 -999 -999 -999
2010-08-25 07:11:10 51°19.485 2°49.904 -999 -999 -999 -999
2010-08-25 07:11:20 51°19.515 2°49.872 -999 -999 -999 -999
2010-08-25 07:11:30 51°19.547 2°49.837 -999 -999 -999 -999
2010-08-25 07:11:40 51°19.574 2°49.808 -999 -999 -999 -999
2010-08-25 07:11:50 51°19.603 2°49.777 -999 -999 -999 -999
2010-08-25 07:12:00 51°19.632 2°49.745 -999 -999 -999 -999
2010-08-25 07:12:10 51°19.662 2°49.713 -999 -999 -999 -999
2010-08-25 07:12:20 51°19.691 2°49.682 -999 -999 -999 -999
2010-08-25 07:12:30 51°19.723 2°49.647 -999 -999 -999 -999
2010-08-25 07:12:40 51°19.75 2°49.618 -999 -999 -999 -999
2010-08-25 07:12:50 51°19.779 2°49.586 -999 -999 -999 -999
2010-08-25 07:13:00 51°19.808 2°49.554 -999 -999 -999 -999
2010-08-25 07:13:10 51°19.838 2°49.521 -999 -999 -999 -999
2010-08-25 07:13:20 51°19.867 2°49.489 -999 -999 -999 -999
2010-08-25 07:13:30 51°19.899 2°49.453 -999 -999 -999 -999
2010-08-25 07:13:40 51°19.926 2°49.423 -999 -999 -999 -999
2010-08-25 07:13:50 51°19.956 2°49.392 -999 -999 -999 -999
2010-08-25 07:14:00 51°19.985 2°49.359 -999 -999 -999 -999
2010-08-25 07:14:10 51°20.014 2°49.328 -999 -999 -999 -999
2010-08-25 07:14:20 51°20.042 2°49.295 -999 -999 -999 -999
2010-08-25 07:14:30 51°20.072 2°49.254 -999 -999 -999 -999
2010-08-25 07:14:40 51°20.096 2°49.22 -999 -999 -999 -999
2010-08-25 07:14:50 51°20.123 2°49.181 -999 -999 -999 -999
2010-08-25 07:15:00 51°20.148 2°49.141 -999 -999 -999 -999
2010-08-25 07:15:10 51°20.172 2°49.105 -999 -999 -999 -999
2010-08-25 07:15:20 51°20.202 2°49.062 -999 -999 -999 -999
2010-08-25 07:15:30 51°20.225 2°49.027 -999 -999 -999 -999
2010-08-25 07:15:40 51°20.254 2°48.982 -999 -999 -999 -999
2010-08-25 07:15:50 51°20.278 2°48.946 -999 -999 -999 -999
2010-08-25 07:16:00 51°20.307 2°48.902 -999 -999 -999 -999
2010-08-25 07:16:10 51°20.333 2°48.862 -999 -999 -999 -999
2010-08-25 07:16:20 51°20.359 2°48.822 -999 -999 -999 -999
2010-08-25 07:16:30 51°20.385 2°48.782 -999 -999 -999 -999
2010-08-25 07:16:40 51°20.411 2°48.741 -999 -999 -999 -999
2010-08-25 07:16:50 51°20.438 2°48.701 -999 -999 -999 -999
2010-08-25 07:17:00 51°20.464 2°48.661 -999 -999 -999 -999
2010-08-25 07:17:10 51°20.491 2°48.621 -999 -999 -999 -999
2010-08-25 07:17:20 51°20.517 2°48.58 -999 -999 -999 -999
2010-08-25 07:17:30 51°20.543 2°48.54 -999 -999 -999 -999
2010-08-25 07:17:40 51°20.569 2°48.499 -999 -999 -999 -999
2010-08-25 07:17:50 51°20.598 2°48.455 -999 -999 -999 -999
2010-08-25 07:18:00 51°20.622 2°48.418 -999 -999 -999 -999
2010-08-25 07:18:10 51°20.646 2°48.382 -999 -999 -999 -999
2010-08-25 07:18:20 51°20.675 2°48.338 -999 -999 -999 -999
2010-08-25 07:18:30 51°20.699 2°48.303 -999 -999 -999 -999
2010-08-25 07:18:40 51°20.725 2°48.262 -999 -999 -999 -999
2010-08-25 07:18:50 51°20.752 2°48.224 -999 -999 -999 -999
2010-08-25 07:19:00 51°20.782 2°48.182 -999 -999 -999 -999
2010-08-25 07:19:10 51°20.809 2°48.145 -999 -999 -999 -999
2010-08-25 07:19:20 51°20.838 2°48.11 -999 -999 -999 -999
2010-08-25 07:19:30 51°20.867 2°48.077 -999 -999 -999 -999
2010-08-25 07:19:40 51°20.896 2°48.045 -999 -999 -999 -999
2010-08-25 07:19:50 51°20.926 2°48.014 -999 -999 -999 -999
2010-08-25 07:20:00 51°20.956 2°47.984 -999 -999 -999 -999
2010-08-25 07:20:10 51°20.986 2°47.955 -999 -999 -999 -999
2010-08-25 07:20:20 51°21.016 2°47.927 -999 -999 -999 -999
2010-08-25 07:20:30 51°21.047 2°47.898 -999 -999 -999 -999
2010-08-25 07:20:40 51°21.078 2°47.871 -999 -999 -999 -999
2010-08-25 07:20:50 51°21.109 2°47.843 -999 -999 -999 -999
2010-08-25 07:21:00 51°21.14 2°47.816 -999 -999 -999 -999
2010-08-25 07:21:10 51°21.17 2°47.788 -999 -999 -999 -999
2010-08-25 07:21:20 51°21.201 2°47.761 -999 -999 -999 -999
2010-08-25 07:21:30 51°21.233 2°47.735 -999 -999 -999 -999
2010-08-25 07:21:40 51°21.264 2°47.709 -999 -999 -999 -999
2010-08-25 07:21:50 51°21.295 2°47.682 -999 -999 -999 -999
2010-08-25 07:22:00 51°21.326 2°47.655 -999 -999 -999 -999
2010-08-25 07:22:10 51°21.358 2°47.629 -999 -999 -999 -999
2010-08-25 07:22:20 51°21.389 2°47.602 -999 -999 -999 -999
2010-08-25 07:22:30 51°21.42 2°47.576 -999 -999 -999 -999
2010-08-25 07:22:40 51°21.451 2°47.549 -999 -999 -999 -999
2010-08-25 07:22:50 51°21.482 2°47.522 -999 -999 -999 -999
2010-08-25 07:23:00 51°21.514 2°47.496 -999 -999 -999 -999
2010-08-25 07:23:10 51°21.545 2°47.47 -999 -999 -999 -999
2010-08-25 07:23:20 51°21.577 2°47.444 -999 -999 -999 -999
2010-08-25 07:23:30 51°21.609 2°47.419 -999 -999 -999 -999
2010-08-25 07:23:40 51°21.641 2°47.394 -999 -999 -999 -999
2010-08-25 07:23:50 51°21.675 2°47.367 -999 -999 -999 -999
2010-08-25 07:24:00 51°21.704 2°47.345 -999 -999 -999 -999
2010-08-25 07:24:10 51°21.735 2°47.32 -999 -999 -999 -999
2010-08-25 07:24:20 51°21.767 2°47.295 -999 -999 -999 -999
2010-08-25 07:24:30 51°21.798 2°47.269 -999 -999 -999 -999
2010-08-25 07:24:40 51°21.829 2°47.244 -999 -999 -999 -999
2010-08-25 07:24:50 51°21.861 2°47.218 -999 -999 -999 -999
2010-08-25 07:25:00 51°21.892 2°47.194 -999 -999 -999 -999
2010-08-25 07:25:10 51°21.923 2°47.167 -999 -999 -999 -999
2010-08-25 07:25:20 51°21.953 2°47.14 -999 -999 -999 -999
2010-08-25 07:25:30 51°21.985 2°47.114 -999 -999 -999 -999
2010-08-25 07:25:40 51°22.016 2°47.087 -999 -999 -999 -999
2010-08-25 07:25:50 51°22.047 2°47.06 -999 -999 -999 -999
2010-08-25 07:26:00 51°22.078 2°47.034 -999 -999 -999 -999
2010-08-25 07:26:10 51°22.11 2°47.009 -999 -999 -999 -999
2010-08-25 07:26:20 51°22.14 2°46.983 -999 -999 -999 -999
2010-08-25 07:26:30 51°22.171 2°46.956 -999 -999 -999 -999
2010-08-25 07:26:40 51°22.202 2°46.929 -999 -999 -999 -999
2010-08-25 07:26:50 51°22.232 2°46.902 -999 -999 -999 -999
2010-08-25 07:27:00 51°22.262 2°46.873 -999 -999 -999 -999
2010-08-25 07:27:10 51°22.291 2°46.845 -999 -999 -999 -999
2010-08-25 07:27:20 51°22.32 2°46.815 -999 -999 -999 -999
2010-08-25 07:27:30 51°22.349 2°46.785 -999 -999 -999 -999
2010-08-25 07:27:40 51°22.378 2°46.754 -999 -999 -999 -999
2010-08-25 07:27:50 51°22.411 2°46.722 -999 -999 -999 -999
2010-08-25 07:28:00 51°22.437 2°46.695 -999 -999 -999 -999
2010-08-25 07:28:10 51°22.467 2°46.666 -999 -999 -999 -999
2010-08-25 07:28:20 51°22.496 2°46.637 -999 -999 -999 -999
2010-08-25 07:28:30 51°22.526 2°46.608 -999 -999 -999 -999
2010-08-25 07:28:40 51°22.555 2°46.579 -999 -999 -999 -999
2010-08-25 07:28:50 51°22.587 2°46.546 -999 -999 -999 -999
2010-08-25 07:29:00 51°22.613 2°46.52 -999 -999 -999 -999
2010-08-25 07:29:10 51°22.646 2°46.488 -999 -999 -999 -999
2010-08-25 07:29:20 51°22.673 2°46.461 -999 -999 -999 -999
2010-08-25 07:29:30 51°22.702 2°46.432 -999 -999 -999 -999
2010-08-25 07:29:40 51°22.732 2°46.403 -999 -999 -999 -999
2010-08-25 07:29:50 51°22.765 2°46.371 -999 -999 -999 -999
2010-08-25 07:30:00 51°22.792 2°46.345 -999 -999 -999 -999
2010-08-25 07:30:10 51°22.824 2°46.311 -999 -999 -999 -999
2010-08-25 07:30:20 51°22.849 2°46.283 -999 -999 -999 -999
2010-08-25 07:30:30 51°22.878 2°46.251 -999 -999 -999 -999
2010-08-25 07:30:40 51°22.907 2°46.22 -999 -999 -999 -999
2010-08-25 07:30:50 51°22.939 2°46.184 -999 -999 -999 -999
2010-08-25 07:31:00 51°22.965 2°46.156 -999 -999 -999 -999
2010-08-25 07:31:10 51°22.997 2°46.121 -999 -999 -999 -999
2010-08-25 07:31:20 51°23.022 2°46.092 -999 -999 -999 -999
2010-08-25 07:31:30 51°23.051 2°46.061 -999 -999 -999 -999
2010-08-25 07:31:40 51°23.08 2°46.03 -999 -999 -999 -999
2010-08-25 07:31:50 51°23.112 2°45.995 -999 -999 -999 -999
2010-08-25 07:32:00 51°23.138 2°45.967 -999 -999 -999 -999
2010-08-25 07:32:10 51°23.164 2°45.94 -999 -999 -999 -999
2010-08-25 07:32:20 51°23.196 2°45.906 -999 -999 -999 -999
2010-08-25 07:32:30 51°23.222 2°45.878 -999 -999 -999 -999
2010-08-25 07:32:40 51°23.254 2°45.843 -999 -999 -999 -999
2010-08-25 07:32:50 51°23.279 2°45.814 -999 -999 -999 -999
2010-08-25 07:33:00 51°23.311 2°45.779 -999 -999 -999 -999
2010-08-25 07:33:10 51°23.34 2°45.747 -999 -999 -999 -999
2010-08-25 07:33:20 51°23.368 2°45.716 -999 -999 -999 -999
2010-08-25 07:33:30 51°23.397 2°45.684 -999 -999 -999 -999
2010-08-25 07:33:40 51°23.425 2°45.651 -999 -999 -999 -999
2010-08-25 07:33:50 51°23.454 2°45.619 -999 -999 -999 -999
2010-08-25 07:34:00 51°23.482 2°45.587 -999 -999 -999 -999
2010-08-25 07:34:10 51°23.511 2°45.555 -999 -999 -999 -999
2010-08-25 07:34:20 51°23.54 2°45.524 -999 -999 -999 -999
2010-08-25 07:34:30 51°23.569 2°45.492 -999 -999 -999 -999
2010-08-25 07:34:40 51°23.597 2°45.46 -999 -999 -999 -999
2010-08-25 07:34:50 51°23.626 2°45.428 -999 -999 -999 -999
2010-08-25 07:35:00 51°23.654 2°45.395 -999 -999 -999 -999
2010-08-25 07:35:10 51°23.682 2°45.362 -999 -999 -999 -999
2010-08-25 07:35:20 51°23.71 2°45.33 -999 -999 -999 -999
2010-08-25 07:35:30 51°23.738 2°45.297 -999 -999 -999 -999
2010-08-25 07:35:40 51°23.766 2°45.265 -999 -999 -999 -999
2010-08-25 07:35:50 51°23.795 2°45.233 -999 -999 -999 -999
2010-08-25 07:36:00 51°23.823 2°45.201 -999 -999 -999 -999
2010-08-25 07:36:10 51°23.855 2°45.167 -999 -999 -999 -999
2010-08-25 07:36:20 51°23.881 2°45.142 -999 -999 -999 -999
2010-08-25 07:36:30 51°23.911 2°45.118 -999 -999 -999 -999
2010-08-25 07:36:40 51°23.942 2°45.101 -999 -999 -999 -999
2010-08-25 07:36:50 51°23.974 2°45.087 -999 -999 -999 -999
2010-08-25 07:37:00 51°24.006 2°45.077 -999 -999 -999 -999
2010-08-25 07:37:10 51°24.042 2°45.07 -999 -999 -999 -999
2010-08-25 07:37:20 51°24.071 2°45.066 -999 -999 -999 -999
2010-08-25 07:37:30 51°24.103 2°45.063 -999 -999 -999 -999
2010-08-25 07:37:40 51°24.136 2°45.06 -999 -999 -999 -999
2010-08-25 07:37:50 51°24.169 2°45.06 -999 -999 -999 -999
2010-08-25 07:38:00 51°24.201 2°45.064 -999 -999 -999 -999
2010-08-25 07:38:10 51°24.229 2°45.072 -999 -999 -999 -999
2010-08-25 07:38:20 51°24.263 2°45.087 -999 -999 -999 -999
2010-08-25 07:38:30 51°24.29 2°45.103 -999 -999 -999 -999
2010-08-25 07:38:40 51°24.32 2°45.128 -999 -999 -999 -999
2010-08-25 07:38:50 51°24.343 2°45.153 -999 -999 -999 -999
2010-08-25 07:39:00 51°24.368 2°45.19 -999 -999 -999 -999
2010-08-25 07:39:10 51°24.389 2°45.227 -999 -999 -999 -999
2010-08-25 07:39:20 51°24.408 2°45.267 -999 -999 -999 -999
2010-08-25 07:39:30 51°24.423 2°45.31 -999 -999 -999 -999
2010-08-25 07:39:40 51°24.436 2°45.356 -999 -999 -999 -999
2010-08-25 07:39:50 51°24.448 2°45.402 -999 -999 -999 -999
2010-08-25 07:40:00 51°24.459 2°45.448 -999 -999 -999 -999
2010-08-25 07:40:10 51°24.471 2°45.494 -999 -999 -999 -999
2010-08-25 07:40:20 51°24.483 2°45.541 -999 -999 -999 -999
2010-08-25 07:40:30 51°24.495 2°45.587 -999 -999 -999 -999
2010-08-25 07:40:40 51°24.51 2°45.629 -999 -999 -999 -999
2010-08-25 07:40:50 51°24.525 2°45.677 -999 -999 -999 -999
2010-08-25 07:41:00 51°24.539 2°45.716 -999 -999 -999 -999
2010-08-25 07:41:10 51°24.555 2°45.758 -999 -999 -999 -999
2010-08-25 07:41:20 51°24.571 2°45.801 -999 -999 -999 -999
2010-08-25 07:41:30 51°24.587 2°45.843 -999 -999 -999 -999
2010-08-25 07:41:40 51°24.604 2°45.885 -999 -999 -999 -999
2010-08-25 07:41:50 51°24.623 2°45.929 -999 -999 -999 -999
2010-08-25 07:42:00 51°24.639 2°45.965 -999 -999 -999 -999
2010-08-25 07:42:10 51°24.657 2°46.005 -999 -999 -999 -999
2010-08-25 07:42:20 51°24.675 2°46.046 -999 -999 -999 -999
2010-08-25 07:42:30 51°24.694 2°46.09 -999 -999 -999 -999
2010-08-25 07:42:40 51°24.709 2°46.127 -999 -999 -999 -999
2010-08-25 07:42:50 51°24.729 2°46.172 -999 -999 -999 -999
2010-08-25 07:43:00 51°24.744 2°46.208 -999 -999 -999 -999
2010-08-25 07:43:10 51°24.762 2°46.249 -999 -999 -999 -999
2010-08-25 07:43:20 51°24.779 2°46.291 -999 -999 -999 -999
2010-08-25 07:43:30 51°24.796 2°46.338 -999 -999 -999 -999
2010-08-25 07:43:40 51°24.812 2°46.374 -999 -999 -999 -999
2010-08-25 07:43:50 51°24.831 2°46.42 -999 -999 -999 -999
2010-08-25 07:44:00 51°24.848 2°46.456 -999 -999 -999 -999
2010-08-25 07:44:10 51°24.864 2°46.492 -999 -999 -999 -999
2010-08-25 07:44:20 51°24.883 2°46.537 -999 -999 -999 -999
2010-08-25 07:44:30 51°24.898 2°46.575 -999 -999 -999 -999
2010-08-25 07:44:40 51°24.916 2°46.622 -999 -999 -999 -999
2010-08-25 07:44:50 51°24.934 2°46.662 -999 -999 -999 -999
2010-08-25 07:45:00 51°24.95 2°46.704 -999 -999 -999 -999
2010-08-25 07:45:10 51°24.968 2°46.744 -999 -999 -999 -999
2010-08-25 07:45:20 51°24.985 2°46.784 -999 -999 -999 -999
2010-08-25 07:45:30 51°25.002 2°46.825 -999 -999 -999 -999
2010-08-25 07:45:40 51°25.018 2°46.867 -999 -999 -999 -999
2010-08-25 07:45:50 51°25.035 2°46.909 -999 -999 -999 -999
2010-08-25 07:46:00 51°25.05 2°46.951 -999 -999 -999 -999
2010-08-25 07:46:10 51°25.069 2°46.996 -999 -999 -999 -999
2010-08-25 07:46:20 51°25.084 2°47.034 -999 -999 -999 -999
2010-08-25 07:46:30 51°25.1 2°47.076 -999 -999 -999 -999
2010-08-25 07:46:40 51°25.117 2°47.116 -999 -999 -999 -999
2010-08-25 07:46:50 51°25.134 2°47.158 -999 -999 -999 -999
2010-08-25 07:47:00 51°25.15 2°47.2 -999 -999 -999 -999
2010-08-25 07:47:10 51°25.167 2°47.242 -999 -999 -999 -999
2010-08-25 07:47:20 51°25.183 2°47.283 -999 -999 -999 -999
2010-08-25 07:47:30 51°25.2 2°47.325 -999 -999 -999 -999
2010-08-25 07:47:40 51°25.217 2°47.366 -999 -999 -999 -999
2010-08-25 07:47:50 51°25.236 2°47.411 -999 -999 -999 -999
2010-08-25 07:48:00 51°25.251 2°47.448 -999 -999 -999 -999
2010-08-25 07:48:10 51°25.267 2°47.489 -999 -999 -999 -999
2010-08-25 07:48:20 51°25.284 2°47.531 -999 -999 -999 -999
2010-08-25 07:48:30 51°25.3 2°47.573 -999 -999 -999 -999
2010-08-25 07:48:40 51°25.316 2°47.615 -999 -999 -999 -999
2010-08-25 07:48:50 51°25.335 2°47.661 -999 -999 -999 -999
2010-08-25 07:49:00 51°25.35 2°47.699 -999 -999 -999 -999
2010-08-25 07:49:10 51°25.366 2°47.742 -999 -999 -999 -999
2010-08-25 07:49:20 51°25.383 2°47.783 -999 -999 -999 -999
2010-08-25 07:49:30 51°25.4 2°47.825 -999 -999 -999 -999
2010-08-25 07:49:40 51°25.416 2°47.867 -999 -999 -999 -999
2010-08-25 07:49:50 51°25.433 2°47.907 -999 -999 -999 -999
2010-08-25 07:50:00 51°25.451 2°47.947 -999 -999 -999 -999
2010-08-25 07:50:10 51°25.468 2°47.988 -999 -999 -999 -999
2010-08-25 07:50:20 51°25.485 2°48.028 -999 -999 -999 -999
2010-08-25 07:50:30 51°25.503 2°48.069 -999 -999 -999 -999
2010-08-25 07:50:40 51°25.519 2°48.111 -999 -999 -999 -999
2010-08-25 07:50:50 51°25.535 2°48.153 -999 -999 -999 -999
2010-08-25 07:51:00 51°25.553 2°48.193 -999 -999 -999 -999
2010-08-25 07:51:10 51°25.567 2°48.231 -999 -999 -999 -999
2010-08-25 07:51:20 51°25.585 2°48.275 -999 -999 -999 -999
2010-08-25 07:51:30 51°25.601 2°48.317 -999 -999 -999 -999
2010-08-25 07:51:40 51°25.617 2°48.357 -999 -999 -999 -999
2010-08-25 07:51:50 51°25.634 2°48.391 -999 -999 -999 -999
2010-08-25 07:52:00 51°25.651 2°48.436 -999 -999 -999 -999
2010-08-25 07:52:10 51°25.668 2°48.478 -999 -999 -999 -999
2010-08-25 07:52:20 51°25.684 2°48.518 -999 -999 -999 -999
2010-08-25 07:52:30 51°25.7 2°48.559 -999 -999 -999 -999
2010-08-25 07:52:40 51°25.717 2°48.599 -999 -999 -999 -999
2010-08-25 07:52:50 51°25.734 2°48.64 -999 -999 -999 -999
2010-08-25 07:53:00 51°25.751 2°48.681 -999 -999 -999 -999
2010-08-25 07:53:10 51°25.768 2°48.722 -999 -999 -999 -999
2010-08-25 07:53:20 51°25.786 2°48.762 -999 -999 -999 -999
2010-08-25 07:53:30 51°25.804 2°48.802 -999 -999 -999 -999
2010-08-25 07:53:40 51°25.82 2°48.843 -999 -999 -999 -999
2010-08-25 07:53:50 51°25.836 2°48.884 -999 -999 -999 -999
2010-08-25 07:54:00 51°25.853 2°48.926 -999 -999 -999 -999
2010-08-25 07:54:10 51°25.87 2°48.967 -999 -999 -999 -999
2010-08-25 07:54:20 51°25.887 2°49.008 -999 -999 -999 -999
2010-08-25 07:54:30 51°25.904 2°49.05 -999 -999 -999 -999
2010-08-25 07:54:40 51°25.92 2°49.092 -999 -999 -999 -999
2010-08-25 07:54:50 51°25.936 2°49.132 -999 -999 -999 -999
2010-08-25 07:55:00 51°25.955 2°49.17 -999 -999 -999 -999
2010-08-25 07:55:10 51°25.972 2°49.209 -999 -999 -999 -999
2010-08-25 07:55:20 51°25.989 2°49.25 -999 -999 -999 -999
2010-08-25 07:55:30 51°26.005 2°49.291 -999 -999 -999 -999
2010-08-25 07:55:40 51°26.022 2°49.332 -999 -999 -999 -999
2010-08-25 07:55:50 51°26.039 2°49.374 -999 -999 -999 -999
2010-08-25 07:56:00 51°26.055 2°49.415 -999 -999 -999 -999
2010-08-25 07:56:10 51°26.072 2°49.456 -999 -999 -999 -999
2010-08-25 07:56:20 51°26.089 2°49.496 -999 -999 -999 -999
2010-08-25 07:56:30 51°26.105 2°49.538 -999 -999 -999 -999
2010-08-25 07:56:40 51°26.121 2°49.581 -999 -999 -999 -999
2010-08-25 07:56:50 51°26.139 2°49.62 -999 -999 -999 -999
2010-08-25 07:57:00 51°26.157 2°49.661 -999 -999 -999 -999
2010-08-25 07:57:10 51°26.175 2°49.701 -999 -999 -999 -999
2010-08-25 07:57:20 51°26.192 2°49.74 -999 -999 -999 -999
2010-08-25 07:57:30 51°26.209 2°49.781 -999 -999 -999 -999
2010-08-25 07:57:40 51°26.226 2°49.822 -999 -999 -999 -999
2010-08-25 07:57:50 51°26.244 2°49.862 -999 -999 -999 -999
2010-08-25 07:58:00 51°26.262 2°49.902 -999 -999 -999 -999
2010-08-25 07:58:10 51°26.28 2°49.942 -999 -999 -999 -999
2010-08-25 07:58:20 51°26.296 2°49.983 -999 -999 -999 -999
2010-08-25 07:58:30 51°26.314 2°50.024 -999 -999 -999 -999
2010-08-25 07:58:40 51°26.331 2°50.064 -999 -999 -999 -999
2010-08-25 07:58:50 51°26.348 2°50.106 -999 -999 -999 -999
2010-08-25 07:59:00 51°26.365 2°50.147 -999 -999 -999 -999
2010-08-25 07:59:10 51°26.381 2°50.185 -999 -999 -999 -999
2010-08-25 07:59:20 51°26.4 2°50.23 -999 -999 -999 -999
2010-08-25 07:59:30 51°26.417 2°50.271 -999 -999 -999 -999
2010-08-25 07:59:40 51°26.435 2°50.313 -999 -999 -999 -999
2010-08-25 07:59:50 51°26.45 2°50.349 -999 -999 -999 -999
2010-08-25 08:00:00 51°26.468 2°50.394 -999 -999 -999 -999
2010-08-25 08:00:10 51°26.486 2°50.436 -999 -999 -999 -999
2010-08-25 08:00:20 51°26.501 2°50.478 -999 -999 -999 -999
2010-08-25 08:00:30 51°26.517 2°50.52 -999 -999 -999 -999
2010-08-25 08:00:40 51°26.535 2°50.561 -999 -999 -999 -999
2010-08-25 08:00:50 51°26.551 2°50.603 -999 -999 -999 -999
2010-08-25 08:01:00 51°26.568 2°50.645 -999 -999 -999 -999
2010-08-25 08:01:10 51°26.587 2°50.686 -999 -999 -999 -999
2010-08-25 08:01:20 51°26.603 2°50.728 -999 -999 -999 -999
2010-08-25 08:01:30 51°26.622 2°50.774 -999 -999 -999 -999
2010-08-25 08:01:40 51°26.637 2°50.812 -999 -999 -999 -999
2010-08-25 08:01:50 51°26.654 2°50.855 -999 -999 -999 -999
2010-08-25 08:02:00 51°26.671 2°50.896 -999 -999 -999 -999
2010-08-25 08:02:10 51°26.689 2°50.939 -999 -999 -999 -999
2010-08-25 08:02:20 51°26.705 2°50.981 -999 -999 -999 -999
2010-08-25 08:02:30 51°26.724 2°51.027 -999 -999 -999 -999
2010-08-25 08:02:40 51°26.738 2°51.065 -999 -999 -999 -999
2010-08-25 08:02:50 51°26.755 2°51.107 -999 -999 -999 -999
2010-08-25 08:03:00 51°26.773 2°51.148 -999 -999 -999 -999
2010-08-25 08:03:10 51°26.79 2°51.189 -999 -999 -999 -999
2010-08-25 08:03:20 51°26.805 2°51.232 -999 -999 -999 -999
2010-08-25 08:03:30 51°26.824 2°51.278 -999 -999 -999 -999
2010-08-25 08:03:40 51°26.838 2°51.316 -999 -999 -999 -999
2010-08-25 08:03:50 51°26.856 2°51.357 -999 -999 -999 -999
2010-08-25 08:04:00 51°26.873 2°51.399 -999 -999 -999 -999
2010-08-25 08:04:10 51°26.89 2°51.44 -999 -999 -999 -999
2010-08-25 08:04:20 51°26.907 2°51.481 -999 -999 -999 -999
2010-08-25 08:04:30 51°26.926 2°51.527 -999 -999 -999 -999
2010-08-25 08:04:40 51°26.941 2°51.564 -999 -999 -999 -999
2010-08-25 08:04:50 51°26.958 2°51.606 -999 -999 -999 -999
2010-08-25 08:05:00 51°26.974 2°51.648 -999 -999 -999 -999
2010-08-25 08:05:10 51°26.988 2°51.686 -999 -999 -999 -999
2010-08-25 08:05:20 51°27.008 2°51.731 -999 -999 -999 -999
2010-08-25 08:05:30 51°27.021 2°51.771 -999 -999 -999 -999
2010-08-25 08:05:40 51°27.04 2°51.817 -999 -999 -999 -999
2010-08-25 08:05:50 51°27.056 2°51.854 -999 -999 -999 -999
2010-08-25 08:06:00 51°27.073 2°51.9 -999 -999 -999 -999
2010-08-25 08:06:10 51°27.088 2°51.942 -999 -999 -999 -999
2010-08-25 08:06:20 51°27.104 2°51.984 -999 -999 -999 -999
2010-08-25 08:06:30 51°27.12 2°52.026 -999 -999 -999 -999
2010-08-25 08:06:40 51°27.136 2°52.069 -999 -999 -999 -999
2010-08-25 08:06:50 51°27.152 2°52.112 -999 -999 -999 -999
2010-08-25 08:07:00 51°27.168 2°52.154 -999 -999 -999 -999
2010-08-25 08:07:10 51°27.186 2°52.194 -999 -999 -999 -999
2010-08-25 08:07:20 51°27.203 2°52.235 -999 -999 -999 -999
2010-08-25 08:07:30 51°27.219 2°52.277 -999 -999 -999 -999
2010-08-25 08:07:40 51°27.234 2°52.319 -999 -999 -999 -999
2010-08-25 08:07:50 51°27.251 2°52.361 -999 -999 -999 -999
2010-08-25 08:08:00 51°27.268 2°52.403 -999 -999 -999 -999
2010-08-25 08:08:10 51°27.285 2°52.444 -999 -999 -999 -999
2010-08-25 08:08:20 51°27.3 2°52.486 -999 -999 -999 -999
2010-08-25 08:08:30 51°27.317 2°52.529 -999 -999 -999 -999
2010-08-25 08:08:40 51°27.334 2°52.571 -999 -999 -999 -999
2010-08-25 08:08:50 51°27.35 2°52.612 -999 -999 -999 -999
2010-08-25 08:09:00 51°27.367 2°52.654 -999 -999 -999 -999
2010-08-25 08:09:10 51°27.384 2°52.696 -999 -999 -999 -999
2010-08-25 08:09:20 51°27.401 2°52.737 -999 -999 -999 -999
2010-08-25 08:09:30 51°27.417 2°52.779 -999 -999 -999 -999
2010-08-25 08:09:40 51°27.434 2°52.821 -999 -999 -999 -999
2010-08-25 08:09:50 51°27.45 2°52.864 -999 -999 -999 -999
2010-08-25 08:10:00 51°27.465 2°52.906 -999 -999 -999 -999
2010-08-25 08:10:10 51°27.482 2°52.947 -999 -999 -999 -999
2010-08-25 08:10:20 51°27.499 2°52.989 -999 -999 -999 -999
2010-08-25 08:10:30 51°27.516 2°53.031 -999 -999 -999 -999
2010-08-25 08:10:40 51°27.532 2°53.073 -999 -999 -999 -999
2010-08-25 08:10:50 51°27.548 2°53.116 -999 -999 -999 -999
2010-08-25 08:11:00 51°27.565 2°53.157 -999 -999 -999 -999
2010-08-25 08:11:10 51°27.58 2°53.195 -999 -999 -999 -999
2010-08-25 08:11:20 51°27.597 2°53.242 -999 -999 -999 -999
2010-08-25 08:11:30 51°27.611 2°53.281 -999 -999 -999 -999
2010-08-25 08:11:40 51°27.629 2°53.329 -999 -999 -999 -999
2010-08-25 08:11:50 51°27.646 2°53.371 -999 -999 -999 -999
2010-08-25 08:12:00 51°27.662 2°53.414 -999 -999 -999 -999
2010-08-25 08:12:10 51°27.678 2°53.456 -999 -999 -999 -999
2010-08-25 08:12:20 51°27.693 2°53.498 -999 -999 -999 -999
2010-08-25 08:12:30 51°27.708 2°53.541 -999 -999 -999 -999
2010-08-25 08:12:40 51°27.722 2°53.584 -999 -999 -999 -999
2010-08-25 08:12:50 51°27.737 2°53.627 -999 -999 -999 -999
2010-08-25 08:13:00 51°27.752 2°53.669 -999 -999 -999 -999
2010-08-25 08:13:10 51°27.768 2°53.712 -999 -999 -999 -999
2010-08-25 08:13:20 51°27.783 2°53.756 -999 -999 -999 -999
2010-08-25 08:13:30 51°27.798 2°53.799 -999 -999 -999 -999
2010-08-25 08:13:40 51°27.813 2°53.841 -999 -999 -999 -999
2010-08-25 08:13:50 51°27.829 2°53.889 -999 -999 -999 -999
2010-08-25 08:14:00 51°27.842 2°53.928 -999 -999 -999 -999
2010-08-25 08:14:10 51°27.855 2°53.972 -999 -999 -999 -999
2010-08-25 08:14:20 51°27.871 2°54.013 -999 -999 -999 -999
2010-08-25 08:14:30 51°27.886 2°54.055 -999 -999 -999 -999
2010-08-25 08:14:40 51°27.9 2°54.098 -999 -999 -999 -999
2010-08-25 08:14:50 51°27.915 2°54.141 -999 -999 -999 -999
2010-08-25 08:15:00 51°27.93 2°54.183 -999 -999 -999 -999
2010-08-25 08:15:10 51°27.946 2°54.226 -999 -999 -999 -999
2010-08-25 08:15:20 51°27.961 2°54.269 -999 -999 -999 -999
2010-08-25 08:15:30 51°27.977 2°54.311 -999 -999 -999 -999
2010-08-25 08:15:40 51°27.992 2°54.354 -999 -999 -999 -999
2010-08-25 08:15:50 51°28.006 2°54.397 -999 -999 -999 -999
2010-08-25 08:16:00 51°28.021 2°54.44 -999 -999 -999 -999
2010-08-25 08:16:10 51°28.035 2°54.483 -999 -999 -999 -999
2010-08-25 08:16:20 51°28.05 2°54.527 -999 -999 -999 -999
2010-08-25 08:16:30 51°28.065 2°54.569 -999 -999 -999 -999
2010-08-25 08:16:40 51°28.08 2°54.611 -999 -999 -999 -999
2010-08-25 08:16:50 51°28.095 2°54.654 -999 -999 -999 -999
2010-08-25 08:17:00 51°28.11 2°54.696 -999 -999 -999 -999
2010-08-25 08:17:10 51°28.126 2°54.738 -999 -999 -999 -999
2010-08-25 08:17:20 51°28.142 2°54.779 -999 -999 -999 -999
2010-08-25 08:17:30 51°28.157 2°54.821 -999 -999 -999 -999
2010-08-25 08:17:40 51°28.171 2°54.864 -999 -999 -999 -999
2010-08-25 08:17:50 51°28.186 2°54.905 -999 -999 -999 -999
2010-08-25 08:18:00 51°28.201 2°54.948 -999 -999 -999 -999
2010-08-25 08:18:10 51°28.213 2°54.986 -999 -999 -999 -999
2010-08-25 08:18:20 51°28.229 2°55.033 -999 -999 -999 -999
2010-08-25 08:18:30 51°28.243 2°55.069 -999 -999 -999 -999
2010-08-25 08:18:40 51°28.26 2°55.115 -999 -999 -999 -999
2010-08-25 08:18:50 51°28.276 2°55.157 -999 -999 -999 -999
2010-08-25 08:19:00 51°28.291 2°55.198 -999 -999 -999 -999
2010-08-25 08:19:10 51°28.307 2°55.24 -999 -999 -999 -999
2010-08-25 08:19:20 51°28.32 2°55.283 -999 -999 -999 -999
2010-08-25 08:19:30 51°28.333 2°55.327 -999 -999 -999 -999
2010-08-25 08:19:40 51°28.347 2°55.371 -999 -999 -999 -999
2010-08-25 08:19:50 51°28.362 2°55.414 -999 -999 -999 -999
2010-08-25 08:20:00 51°28.378 2°55.455 -999 -999 -999 -999
2010-08-25 08:20:10 51°28.393 2°55.496 -999 -999 -999 -999
2010-08-25 08:20:20 51°28.408 2°55.538 -999 -999 -999 -999
2010-08-25 08:20:30 51°28.423 2°55.58 -999 -999 -999 -999
2010-08-25 08:20:40 51°28.438 2°55.622 -999 -999 -999 -999
2010-08-25 08:20:50 51°28.453 2°55.665 -999 -999 -999 -999
2010-08-25 08:21:00 51°28.467 2°55.707 -999 -999 -999 -999
2010-08-25 08:21:10 51°28.483 2°55.749 -999 -999 -999 -999
2010-08-25 08:21:20 51°28.499 2°55.79 -999 -999 -999 -999
2010-08-25 08:21:30 51°28.513 2°55.833 -999 -999 -999 -999
2010-08-25 08:21:40 51°28.528 2°55.876 -999 -999 -999 -999
2010-08-25 08:21:50 51°28.542 2°55.918 -999 -999 -999 -999
2010-08-25 08:22:00 51°28.558 2°55.96 -999 -999 -999 -999
2010-08-25 08:22:10 51°28.574 2°56 -999 -999 -999 -999
2010-08-25 08:22:20 51°28.59 2°56.041 -999 -999 -999 -999
2010-08-25 08:22:30 51°28.605 2°56.081 -999 -999 -999 -999
2010-08-25 08:22:40 51°28.621 2°56.122 -999 -999 -999 -999
2010-08-25 08:22:50 51°28.637 2°56.168 -999 -999 -999 -999
2010-08-25 08:23:00 51°28.65 2°56.205 -999 -999 -999 -999
2010-08-25 08:23:10 51°28.666 2°56.248 -999 -999 -999 -999
2010-08-25 08:23:20 51°28.681 2°56.291 -999 -999 -999 -999
2010-08-25 08:23:30 51°28.695 2°56.333 -999 -999 -999 -999
2010-08-25 08:23:40 51°28.711 2°56.373 -999 -999 -999 -999
2010-08-25 08:23:50 51°28.726 2°56.415 -999 -999 -999 -999
2010-08-25 08:24:00 51°28.741 2°56.458 -999 -999 -999 -999
2010-08-25 08:24:10 51°28.757 2°56.506 -999 -999 -999 -999
2010-08-25 08:24:20 51°28.77 2°56.544 -999 -999 -999 -999
2010-08-25 08:24:30 51°28.785 2°56.586 -999 -999 -999 -999
2010-08-25 08:24:40 51°28.8 2°56.627 -999 -999 -999 -999
2010-08-25 08:24:50 51°28.815 2°56.669 -999 -999 -999 -999
2010-08-25 08:25:00 51°28.831 2°56.711 -999 -999 -999 -999
2010-08-25 08:25:10 51°28.847 2°56.758 -999 -999 -999 -999
2010-08-25 08:25:20 51°28.86 2°56.797 -999 -999 -999 -999
2010-08-25 08:25:30 51°28.875 2°56.839 -999 -999 -999 -999
2010-08-25 08:25:40 51°28.892 2°56.88 -999 -999 -999 -999
2010-08-25 08:25:50 51°28.907 2°56.921 -999 -999 -999 -999
2010-08-25 08:26:00 51°28.923 2°56.963 -999 -999 -999 -999
2010-08-25 08:26:10 51°28.938 2°57.006 -999 -999 -999 -999
2010-08-25 08:26:20 51°28.953 2°57.049 -999 -999 -999 -999
2010-08-25 08:26:30 51°28.966 2°57.088 -999 -999 -999 -999
2010-08-25 08:26:40 51°28.983 2°57.135 -999 -999 -999 -999
2010-08-25 08:26:50 51°28.996 2°57.173 -999 -999 -999 -999
2010-08-25 08:27:00 51°29.014 2°57.218 -999 -999 -999 -999
2010-08-25 08:27:10 51°29.03 2°57.259 -999 -999 -999 -999
2010-08-25 08:27:20 51°29.045 2°57.302 -999 -999 -999 -999
2010-08-25 08:27:30 51°29.059 2°57.345 -999 -999 -999 -999
2010-08-25 08:27:40 51°29.073 2°57.386 -999 -999 -999 -999
2010-08-25 08:27:50 51°29.09 2°57.427 -999 -999 -999 -999
2010-08-25 08:28:00 51°29.103 2°57.471 -999 -999 -999 -999
2010-08-25 08:28:10 51°29.12 2°57.511 -999 -999 -999 -999
2010-08-25 08:28:20 51°29.136 2°57.552 -999 -999 -999 -999
2010-08-25 08:28:30 51°29.151 2°57.594 -999 -999 -999 -999
2010-08-25 08:28:40 51°29.164 2°57.638 -999 -999 -999 -999
2010-08-25 08:28:50 51°29.179 2°57.68 -999 -999 -999 -999
2010-08-25 08:29:00 51°29.195 2°57.722 -999 -999 -999 -999
2010-08-25 08:29:10 51°29.21 2°57.764 -999 -999 -999 -999
2010-08-25 08:29:20 51°29.225 2°57.805 -999 -999 -999 -999
2010-08-25 08:29:30 51°29.241 2°57.847 -999 -999 -999 -999
2010-08-25 08:29:40 51°29.257 2°57.889 -999 -999 -999 -999
2010-08-25 08:29:50 51°29.271 2°57.932 -999 -999 -999 -999
2010-08-25 08:30:00 51°29.288 2°57.972 -999 -999 -999 -999
2010-08-25 08:30:10 51°29.304 2°58.014 -999 -999 -999 -999
2010-08-25 08:30:20 51°29.321 2°58.056 -999 -999 -999 -999
2010-08-25 08:30:30 51°29.335 2°58.1 -999 -999 -999 -999
2010-08-25 08:30:40 51°29.351 2°58.141 -999 -999 -999 -999
2010-08-25 08:30:50 51°29.366 2°58.184 -999 -999 -999 -999
2010-08-25 08:31:00 51°29.38 2°58.227 -999 -999 -999 -999
2010-08-25 08:31:10 51°29.396 2°58.269 -999 -999 -999 -999
2010-08-25 08:31:20 51°29.413 2°58.31 -999 -999 -999 -999
2010-08-25 08:31:30 51°29.428 2°58.352 -999 -999 -999 -999
2010-08-25 08:31:40 51°29.444 2°58.395 -999 -999 -999 -999
2010-08-25 08:31:50 51°29.459 2°58.437 -999 -999 -999 -999
2010-08-25 08:32:00 51°29.474 2°58.479 -999 -999 -999 -999
2010-08-25 08:32:10 51°29.488 2°58.523 -999 -999 -999 -999
2010-08-25 08:32:20 51°29.503 2°58.565 -999 -999 -999 -999
2010-08-25 08:32:30 51°29.52 2°58.605 -999 -999 -999 -999
2010-08-25 08:32:40 51°29.538 2°58.645 -999 -999 -999 -999
2010-08-25 08:32:50 51°29.553 2°58.688 -999 -999 -999 -999
2010-08-25 08:33:00 51°29.569 2°58.731 -999 -999 -999 -999
2010-08-25 08:33:10 51°29.588 2°58.778 -999 -999 -999 -999
2010-08-25 08:33:20 51°29.602 2°58.816 -999 -999 -999 -999
2010-08-25 08:33:30 51°29.617 2°58.859 -999 -999 -999 -999
2010-08-25 08:33:40 51°29.633 2°58.902 -999 -999 -999 -999
2010-08-25 08:33:50 51°29.651 2°58.943 -999 -999 -999 -999
2010-08-25 08:34:00 51°29.668 2°58.985 -999 -999 -999 -999
2010-08-25 08:34:10 51°29.684 2°59.028 -999 -999 -999 -999
2010-08-25 08:34:20 51°29.698 2°59.072 -999 -999 -999 -999
2010-08-25 08:34:30 51°29.713 2°59.11 -999 -999 -999 -999
2010-08-25 08:34:40 51°29.731 2°59.157 -999 -999 -999 -999
2010-08-25 08:34:50 51°29.745 2°59.195 -999 -999 -999 -999
2010-08-25 08:35:00 51°29.763 2°59.242 -999 -999 -999 -999
2010-08-25 08:35:10 51°29.78 2°59.285 -999 -999 -999 -999
2010-08-25 08:35:20 51°29.796 2°59.328 -999 -999 -999 -999
2010-08-25 08:35:30 51°29.812 2°59.372 -999 -999 -999 -999
2010-08-25 08:35:40 51°29.828 2°59.414 -999 -999 -999 -999
2010-08-25 08:35:50 51°29.846 2°59.456 -999 -999 -999 -999
2010-08-25 08:36:00 51°29.863 2°59.497 -999 -999 -999 -999
2010-08-25 08:36:10 51°29.88 2°59.54 -999 -999 -999 -999
2010-08-25 08:36:20 51°29.897 2°59.583 -999 -999 -999 -999
2010-08-25 08:36:30 51°29.912 2°59.626 -999 -999 -999 -999
2010-08-25 08:36:40 51°29.928 2°59.669 -999 -999 -999 -999
2010-08-25 08:36:50 51°29.945 2°59.712 -999 -999 -999 -999
2010-08-25 08:37:00 51°29.962 2°59.754 -999 -999 -999 -999
2010-08-25 08:37:10 51°29.982 2°59.8 -999 -999 -999 -999
2010-08-25 08:37:20 51°29.998 2°59.838 -999 -999 -999 -999
2010-08-25 08:37:30 51°30.015 2°59.881 -999 -999 -999 -999
2010-08-25 08:37:40 51°30.031 2°59.925 -999 -999 -999 -999
2010-08-25 08:37:50 51°30.047 2°59.968 -999 -999 -999 -999
2010-08-25 08:38:00 51°30.063 3°0.012 -999 -999 -999 -999
2010-08-25 08:38:10 51°30.082 3°0.059 -999 -999 -999 -999
2010-08-25 08:38:20 51°30.097 3°0.098 -999 -999 -999 -999
2010-08-25 08:38:30 51°30.114 3°0.141 -999 -999 -999 -999
2010-08-25 08:38:40 51°30.13 3°0.185 -999 -999 -999 -999
2010-08-25 08:38:50 51°30.146 3°0.228 -999 -999 -999 -999
2010-08-25 08:39:00 51°30.162 3°0.271 -999 -999 -999 -999
2010-08-25 08:39:10 51°30.181 3°0.319 -999 -999 -999 -999
2010-08-25 08:39:20 51°30.196 3°0.357 -999 -999 -999 -999
2010-08-25 08:39:30 51°30.212 3°0.4 -999 -999 -999 -999
2010-08-25 08:39:40 51°30.227 3°0.444 -999 -999 -999 -999
2010-08-25 08:39:50 51°30.244 3°0.487 -999 -999 -999 -999
2010-08-25 08:40:00 51°30.26 3°0.53 -999 -999 -999 -999
2010-08-25 08:40:10 51°30.276 3°0.574 -999 -999 -999 -999
2010-08-25 08:40:20 51°30.292 3°0.617 -999 -999 -999 -999
2010-08-25 08:40:30 51°30.31 3°0.664 -999 -999 -999 -999
2010-08-25 08:40:40 51°30.326 3°0.702 -999 -999 -999 -999
2010-08-25 08:40:50 51°30.343 3°0.744 -999 -999 -999 -999
2010-08-25 08:41:00 51°30.36 3°0.787 -999 -999 -999 -999
2010-08-25 08:41:10 51°30.375 3°0.826 -999 -999 -999 -999
2010-08-25 08:41:20 51°30.393 3°0.873 -999 -999 -999 -999
2010-08-25 08:41:30 51°30.408 3°0.912 -999 -999 -999 -999
2010-08-25 08:41:40 51°30.425 3°0.96 -999 -999 -999 -999
2010-08-25 08:41:50 51°30.439 3°1 -999 -999 -999 -999
2010-08-25 08:42:00 51°30.457 3°1.047 -999 -999 -999 -999
2010-08-25 08:42:10 51°30.473 3°1.091 -999 -999 -999 -999
2010-08-25 08:42:20 51°30.489 3°1.134 -999 -999 -999 -999
2010-08-25 08:42:30 51°30.506 3°1.175 -999 -999 -999 -999
2010-08-25 08:42:40 51°30.523 3°1.218 -999 -999 -999 -999
2010-08-25 08:42:50 51°30.54 3°1.262 -999 -999 -999 -999
2010-08-25 08:43:00 51°30.556 3°1.306 -999 -999 -999 -999
2010-08-25 08:43:10 51°30.572 3°1.35 -999 -999 -999 -999
2010-08-25 08:43:20 51°30.588 3°1.393 -999 -999 -999 -999
2010-08-25 08:43:30 51°30.605 3°1.436 -999 -999 -999 -999
2010-08-25 08:43:40 51°30.621 3°1.479 -999 -999 -999 -999
2010-08-25 08:43:50 51°30.638 3°1.522 -999 -999 -999 -999
2010-08-25 08:44:00 51°30.655 3°1.564 -999 -999 -999 -999
2010-08-25 08:44:10 51°30.672 3°1.606 -999 -999 -999 -999
2010-08-25 08:44:20 51°30.69 3°1.648 -999 -999 -999 -999
2010-08-25 08:44:30 51°30.707 3°1.691 -999 -999 -999 -999
2010-08-25 08:44:40 51°30.723 3°1.735 -999 -999 -999 -999
2010-08-25 08:44:50 51°30.739 3°1.779 -999 -999 -999 -999
2010-08-25 08:45:00 51°30.756 3°1.821 -999 -999 -999 -999
2010-08-25 08:45:10 51°30.773 3°1.863 -999 -999 -999 -999
2010-08-25 08:45:20 51°30.789 3°1.907 -999 -999 -999 -999
2010-08-25 08:45:30 51°30.804 3°1.95 -999 -999 -999 -999
2010-08-25 08:45:40 51°30.821 3°1.992 -999 -999 -999 -999
2010-08-25 08:45:50 51°30.838 3°2.035 -999 -999 -999 -999
2010-08-25 08:46:00 51°30.855 3°2.078 -999 -999 -999 -999
2010-08-25 08:46:10 51°30.872 3°2.121 -999 -999 -999 -999
2010-08-25 08:46:20 51°30.889 3°2.164 -999 -999 -999 -999
2010-08-25 08:46:30 51°30.907 3°2.212 -999 -999 -999 -999
2010-08-25 08:46:40 51°30.921 3°2.252 -999 -999 -999 -999
2010-08-25 08:46:50 51°30.938 3°2.294 -999 -999 -999 -999
2010-08-25 08:47:00 51°30.955 3°2.336 -999 -999 -999 -999
2010-08-25 08:47:10 51°30.972 3°2.379 -999 -999 -999 -999
2010-08-25 08:47:20 51°30.989 3°2.422 -999 -999 -999 -999
2010-08-25 08:47:30 51°31.006 3°2.47 -999 -999 -999 -999
2010-08-25 08:47:40 51°31.021 3°2.51 -999 -999 -999 -999
2010-08-25 08:47:50 51°31.037 3°2.554 -999 -999 -999 -999
2010-08-25 08:48:00 51°31.053 3°2.597 -999 -999 -999 -999
2010-08-25 08:48:10 51°31.07 3°2.64 -999 -999 -999 -999
2010-08-25 08:48:20 51°31.086 3°2.683 -999 -999 -999 -999
2010-08-25 08:48:30 51°31.105 3°2.731 -999 -999 -999 -999
2010-08-25 08:48:40 51°31.12 3°2.77 -999 -999 -999 -999
2010-08-25 08:48:50 51°31.138 3°2.812 -999 -999 -999 -999
2010-08-25 08:49:00 51°31.155 3°2.855 -999 -999 -999 -999
2010-08-25 08:49:10 51°31.17 3°2.899 -999 -999 -999 -999
2010-08-25 08:49:20 51°31.187 3°2.942 -999 -999 -999 -999
2010-08-25 08:49:30 51°31.204 3°2.985 -999 -999 -999 -999
2010-08-25 08:49:40 51°31.22 3°3.03 -999 -999 -999 -999
2010-08-25 08:49:50 51°31.236 3°3.073 -999 -999 -999 -999
2010-08-25 08:50:00 51°31.253 3°3.116 -999 -999 -999 -999
2010-08-25 08:50:10 51°31.269 3°3.161 -999 -999 -999 -999
2010-08-25 08:50:20 51°31.287 3°3.204 -999 -999 -999 -999
2010-08-25 08:50:30 51°31.305 3°3.247 -999 -999 -999 -999
2010-08-25 08:50:40 51°31.321 3°3.29 -999 -999 -999 -999
2010-08-25 08:50:50 51°31.338 3°3.334 -999 -999 -999 -999
2010-08-25 08:51:00 51°31.355 3°3.377 -999 -999 -999 -999
2010-08-25 08:51:10 51°31.371 3°3.422 -999 -999 -999 -999
2010-08-25 08:51:20 51°31.388 3°3.466 -999 -999 -999 -999
2010-08-25 08:51:30 51°31.407 3°3.514 -999 -999 -999 -999
2010-08-25 08:51:40 51°31.422 3°3.555 -999 -999 -999 -999
2010-08-25 08:51:50 51°31.439 3°3.599 -999 -999 -999 -999
2010-08-25 08:52:00 51°31.456 3°3.643 -999 -999 -999 -999
2010-08-25 08:52:10 51°31.473 3°3.688 -999 -999 -999 -999
2010-08-25 08:52:20 51°31.489 3°3.732 -999 -999 -999 -999
2010-08-25 08:52:30 51°31.508 3°3.78 -999 -999 -999 -999
2010-08-25 08:52:40 51°31.524 3°3.819 -999 -999 -999 -999
2010-08-25 08:52:50 51°31.54 3°3.863 -999 -999 -999 -999
2010-08-25 08:53:00 51°31.557 3°3.906 -999 -999 -999 -999
2010-08-25 08:53:10 51°31.575 3°3.95 -999 -999 -999 -999
2010-08-25 08:53:20 51°31.592 3°3.994 -999 -999 -999 -999
2010-08-25 08:53:30 51°31.61 3°4.043 -999 -999 -999 -999
2010-08-25 08:53:40 51°31.624 3°4.081 -999 -999 -999 -999
2010-08-25 08:53:50 51°31.643 3°4.128 -999 -999 -999 -999
2010-08-25 08:54:00 51°31.658 3°4.167 -999 -999 -999 -999
2010-08-25 08:54:10 51°31.674 3°4.212 -999 -999 -999 -999
2010-08-25 08:54:20 51°31.691 3°4.255 -999 -999 -999 -999
2010-08-25 08:54:30 51°31.709 3°4.304 -999 -999 -999 -999
2010-08-25 08:54:40 51°31.723 3°4.344 -999 -999 -999 -999
2010-08-25 08:54:50 51°31.743 3°4.392 -999 -999 -999 -999
2010-08-25 08:55:00 51°31.758 3°4.431 -999 -999 -999 -999
2010-08-25 08:55:10 51°31.774 3°4.475 -999 -999 -999 -999
2010-08-25 08:55:20 51°31.791 3°4.519 -999 -999 -999 -999
2010-08-25 08:55:30 51°31.807 3°4.563 -999 -999 -999 -999
2010-08-25 08:55:40 51°31.825 3°4.606 -999 -999 -999 -999
2010-08-25 08:55:50 51°31.843 3°4.655 -999 -999 -999 -999
2010-08-25 08:56:00 51°31.86 3°4.692 -999 -999 -999 -999
2010-08-25 08:56:10 51°31.88 3°4.732 -999 -999 -999 -999
2010-08-25 08:56:20 51°31.904 3°4.767 -999 -999 -999 -999
2010-08-25 08:56:30 51°31.926 3°4.794 -999 -999 -999 -999
2010-08-25 08:56:40 51°31.957 3°4.823 -999 -999 -999 -999
2010-08-25 08:56:50 51°31.984 3°4.841 -999 -999 -999 -999
2010-08-25 08:57:00 51°32.015 3°4.855 -999 -999 -999 -999
2010-08-25 08:57:10 51°32.049 3°4.872 -999 -999 -999 -999
2010-08-25 08:57:20 51°32.081 3°4.884 -999 -999 -999 -999
2010-08-25 08:57:30 51°32.113 3°4.892 -999 -999 -999 -999
2010-08-25 08:57:40 51°32.146 3°4.897 -999 -999 -999 -999
2010-08-25 08:57:50 51°32.179 3°4.898 -999 -999 -999 -999
2010-08-25 08:58:00 51°32.213 3°4.893 -999 -999 -999 -999
2010-08-25 08:58:10 51°32.246 3°4.883 -999 -999 -999 -999
2010-08-25 08:58:20 51°32.28 3°4.867 -999 -999 -999 -999
2010-08-25 08:58:30 51°32.312 3°4.845 -999 -999 -999 -999
2010-08-25 08:58:40 51°32.342 3°4.819 -999 -999 -999 -999
2010-08-25 08:58:50 51°32.372 3°4.788 -999 -999 -999 -999
2010-08-25 08:59:00 51°32.4 3°4.753 -999 -999 -999 -999
2010-08-25 08:59:10 51°32.427 3°4.715 -999 -999 -999 -999
2010-08-25 08:59:20 51°32.453 3°4.674 -999 -999 -999 -999
2010-08-25 08:59:30 51°32.48 3°4.628 -999 -999 -999 -999
2010-08-25 08:59:40 51°32.501 3°4.59 -999 -999 -999 -999
2010-08-25 08:59:50 51°32.525 3°4.547 -999 -999 -999 -999
2010-08-25 09:00:00 51°32.549 3°4.502 -999 -999 -999 -999
2010-08-25 09:00:10 51°32.572 3°4.458 -999 -999 -999 -999
2010-08-25 09:00:20 51°32.596 3°4.414 -999 -999 -999 -999
2010-08-25 09:00:30 51°32.622 3°4.365 -999 -999 -999 -999
2010-08-25 09:00:40 51°32.646 3°4.32 -999 -999 -999 -999
2010-08-25 09:00:50 51°32.669 3°4.274 -999 -999 -999 -999
2010-08-25 09:01:00 51°32.69 3°4.233 -999 -999 -999 -999
2010-08-25 09:01:10 51°32.716 3°4.184 -999 -999 -999 -999
2010-08-25 09:01:20 51°32.738 3°4.144 -999 -999 -999 -999
2010-08-25 09:01:30 51°32.763 3°4.094 -999 -999 -999 -999
2010-08-25 09:01:40 51°32.784 3°4.054 -999 -999 -999 -999
2010-08-25 09:01:50 51°32.811 3°4.005 -999 -999 -999 -999
2010-08-25 09:02:00 51°32.832 3°3.964 -999 -999 -999 -999
2010-08-25 09:02:10 51°32.857 3°3.915 -999 -999 -999 -999
2010-08-25 09:02:20 51°32.878 3°3.876 -999 -999 -999 -999
2010-08-25 09:02:30 51°32.904 3°3.828 -999 -999 -999 -999
2010-08-25 09:02:40 51°32.925 3°3.79 -999 -999 -999 -999
2010-08-25 09:02:50 51°32.949 3°3.746 -999 -999 -999 -999
2010-08-25 09:03:00 51°32.974 3°3.698 -999 -999 -999 -999
2010-08-25 09:03:10 51°32.997 3°3.654 -999 -999 -999 -999
2010-08-25 09:03:20 51°33.018 3°3.616 -999 -999 -999 -999
2010-08-25 09:03:30 51°33.044 3°3.568 -999 -999 -999 -999
2010-08-25 09:03:40 51°33.064 3°3.528 -999 -999 -999 -999
2010-08-25 09:03:50 51°33.086 3°3.484 -999 -999 -999 -999
2010-08-25 09:04:00 51°33.104 3°3.435 -999 -999 -999 -999
2010-08-25 09:04:10 51°33.117 3°3.381 -999 -999 -999 -999
2010-08-25 09:04:20 51°33.122 3°3.324 -999 -999 -999 -999
2010-08-25 09:04:30 51°33.121 3°3.272 -999 -999 -999 -999
2010-08-25 09:04:40 51°33.118 3°3.206 -999 -999 -999 -999
2010-08-25 09:04:50 51°33.117 3°3.152 -999 -999 -999 -999
2010-08-25 09:05:00 51°33.116 3°3.085 -999 -999 -999 -999
2010-08-25 09:05:10 51°33.114 3°3.025 -999 -999 -999 -999
2010-08-25 09:05:20 51°33.11 3°2.964 -999 -999 -999 -999
2010-08-25 09:05:30 51°33.106 3°2.91 -999 -999 -999 -999
2010-08-25 09:05:40 51°33.096 3°2.845 -999 -999 -999 -999
2010-08-25 09:05:50 51°33.087 3°2.792 -999 -999 -999 -999
2010-08-25 09:06:00 51°33.074 3°2.727 -999 -999 -999 -999
2010-08-25 09:06:10 51°33.058 3°2.664 -999 -999 -999 -999
2010-08-25 09:06:20 51°33.043 3°2.613 -999 -999 -999 -999
2010-08-25 09:06:30 51°33.027 3°2.557 -999 -999 -999 -999
2010-08-25 09:06:40 51°33.008 3°2.501 -999 -999 -999 -999
2010-08-25 09:06:50 51°32.991 3°2.445 -999 -999 -999 -999
2010-08-25 09:07:00 51°32.973 3°2.389 -999 -999 -999 -999
2010-08-25 09:07:10 51°32.952 3°2.328 -999 -999 -999 -999
2010-08-25 09:07:20 51°32.935 3°2.279 -999 -999 -999 -999
2010-08-25 09:07:30 51°32.915 3°2.224 -999 -999 -999 -999
2010-08-25 09:07:40 51°32.895 3°2.169 -999 -999 -999 -999
2010-08-25 09:07:50 51°32.875 3°2.115 -999 -999 -999 -999
2010-08-25 09:08:00 51°32.856 3°2.061 -999 -999 -999 -999
2010-08-25 09:08:10 51°32.835 3°1.999 -999 -999 -999 -999
2010-08-25 09:08:20 51°32.817 3°1.948 -999 -999 -999 -999
2010-08-25 09:08:30 51°32.798 3°1.893 -999 -999 -999 -999
2010-08-25 09:08:40 51°32.78 3°1.836 -999 -999 -999 -999
2010-08-25 09:08:50 51°32.761 3°1.781 -999 -999 -999 -999
2010-08-25 09:09:00 51°32.742 3°1.725 -999 -999 -999 -999
2010-08-25 09:09:10 51°32.72 3°1.664 -999 -999 -999 -999
2010-08-25 09:09:20 51°32.703 3°1.614 -999 -999 -999 -999
2010-08-25 09:09:30 51°32.685 3°1.558 -999 -999 -999 -999
2010-08-25 09:09:40 51°32.666 3°1.503 -999 -999 -999 -999
2010-08-25 09:09:50 51°32.648 3°1.446 -999 -999 -999 -999
2010-08-25 09:10:00 51°32.629 3°1.39 -999 -999 -999 -999
2010-08-25 09:10:10 51°32.608 3°1.328 -999 -999 -999 -999
2010-08-25 09:10:20 51°32.591 3°1.277 -999 -999 -999 -999
2010-08-25 09:10:30 51°32.572 3°1.22 -999 -999 -999 -999
2010-08-25 09:10:40 51°32.553 3°1.163 -999 -999 -999 -999
2010-08-25 09:10:50 51°32.534 3°1.107 -999 -999 -999 -999
2010-08-25 09:11:00 51°32.515 3°1.051 -999 -999 -999 -999
2010-08-25 09:11:10 51°32.495 3°0.994 -999 -999 -999 -999
2010-08-25 09:11:20 51°32.475 3°0.938 -999 -999 -999 -999
2010-08-25 09:11:30 51°32.456 3°0.882 -999 -999 -999 -999
2010-08-25 09:11:40 51°32.436 3°0.826 -999 -999 -999 -999
2010-08-25 09:11:50 51°32.416 3°0.764 -999 -999 -999 -999
2010-08-25 09:12:00 51°32.398 3°0.713 -999 -999 -999 -999
2010-08-25 09:12:10 51°32.377 3°0.65 -999 -999 -999 -999
2010-08-25 09:12:20 51°32.359 3°0.6 -999 -999 -999 -999
2010-08-25 09:12:30 51°32.34 3°0.543 -999 -999 -999 -999
2010-08-25 09:12:40 51°32.321 3°0.487 -999 -999 -999 -999
2010-08-25 09:12:50 51°32.299 3°0.424 -999 -999 -999 -999
2010-08-25 09:13:00 51°32.282 3°0.373 -999 -999 -999 -999
2010-08-25 09:13:10 51°32.262 3°0.315 -999 -999 -999 -999
2010-08-25 09:13:20 51°32.243 3°0.257 -999 -999 -999 -999
2010-08-25 09:13:30 51°32.225 3°0.206 -999 -999 -999 -999
2010-08-25 09:13:40 51°32.205 3°0.144 -999 -999 -999 -999
2010-08-25 09:13:50 51°32.188 3°0.093 -999 -999 -999 -999
2010-08-25 09:14:00 51°32.167 3°0.03 -999 -999 -999 -999
2010-08-25 09:14:10 51°32.148 2°59.973 -999 -999 -999 -999
2010-08-25 09:14:20 51°32.128 2°59.916 -999 -999 -999 -999
2010-08-25 09:14:30 51°32.108 2°59.853 -999 -999 -999 -999
2010-08-25 09:14:40 51°32.091 2°59.802 -999 -999 -999 -999
2010-08-25 09:14:50 51°32.071 2°59.744 -999 -999 -999 -999
2010-08-25 09:15:00 51°32.051 2°59.687 -999 -999 -999 -999
2010-08-25 09:15:10 51°32.033 2°59.63 -999 -999 -999 -999
2010-08-25 09:15:20 51°32.014 2°59.572 -999 -999 -999 -999
2010-08-25 09:15:30 51°31.994 2°59.509 -999 -999 -999 -999
2010-08-25 09:15:40 51°31.976 2°59.458 -999 -999 -999 -999
2010-08-25 09:15:50 51°31.957 2°59.4 -999 -999 -999 -999
2010-08-25 09:16:00 51°31.938 2°59.343 -999 -999 -999 -999
2010-08-25 09:16:10 51°31.917 2°59.28 -999 -999 -999 -999
2010-08-25 09:16:20 51°31.899 2°59.228 -999 -999 -999 -999
2010-08-25 09:16:30 51°31.878 2°59.165 -999 -999 -999 -999
2010-08-25 09:16:40 51°31.861 2°59.113 -999 -999 -999 -999
2010-08-25 09:16:50 51°31.842 2°59.055 -999 -999 -999 -999
2010-08-25 09:17:00 51°31.823 2°58.998 -999 -999 -999 -999
2010-08-25 09:17:10 51°31.805 2°58.947 -999 -999 -999 -999
2010-08-25 09:17:20 51°31.784 2°58.884 -999 -999 -999 -999
2010-08-25 09:17:30 51°31.764 2°58.827 -999 -999 -999 -999
2010-08-25 09:17:40 51°31.744 2°58.77 -999 -999 -999 -999
2010-08-25 09:17:50 51°31.727 2°58.719 -999 -999 -999 -999
2010-08-25 09:18:00 51°31.705 2°58.655 -999 -999 -999 -999